Time,TemperatureF,DewpointF,PressureIn,WindDirection,WindDirectionDegrees,WindSpeedMPH,WindSpeedGustMPH,Humidity,HourlyPrecipIn,Conditions,Clouds,dailyrainin,SoftwareType,DateUTC
2013-07-30 00:00:00,81.9,78.3,30.13,SSE,158,3.3,3.3,89,0.00,RA,SCT,0.00,WeatherDisplay:10.37,2013-07-30 04:00:00,
2013-07-30 00:01:00,81.9,78.3,30.14,ESE,112,3.5,3.5,89,0.00,RA,SCT,0.00,WeatherDisplay:10.37,2013-07-30 04:01:00,
2013-07-30 00:02:00,81.9,78.3,30.14,SE,135,3.5,3.5,89,0.00,RA,SCT,0.00,WeatherDisplay:10.37,2013-07-30 04:02:00,
2013-07-30 00:03:00,81.9,78.3,30.14,SE,135,3.8,3.8,89,0.00,RA,SCT,0.00,WeatherDisplay:10.37,2013-07-30 04:03:00,
2013-07-30 00:08:00,81.9,78.3,30.14,SE,135,4.8,4.8,89,0.00,RA,SCT,0.00,WeatherDisplay:10.37,2013-07-30 04:08:00,
2013-07-30 00:10:00,81.9,78.3,30.14,ESE,112,4.6,4.6,89,0.00,BKN,SCT,0.00,WeatherDisplay:10.37,2013-07-30 04:10:00,
2013-07-30 00:15:00,81.9,78.3,30.13,South,180,5.4,5.4,89,0.00,BKN,SCT,0.00,WeatherDisplay:10.37,2013-07-30 04:15:00,
2013-07-30 00:20:00,82.0,78.4,30.13,ENE,68,5.8,5.8,89,0.00,BKN,SCT,0.00,WeatherDisplay:10.37,2013-07-30 04:20:00,
2013-07-30 00:26:00,82.0,78.4,30.13,SSW,202,3.5,3.5,89,0.00,BKN,SCT,0.00,WeatherDisplay:10.37,2013-07-30 04:26:00,
2013-07-30 00:31:00,82.0,78.4,30.13,SE,135,5.8,5.8,89,0.00,BKN,SCT,0.00,WeatherDisplay:10.37,2013-07-30 04:31:00,
2013-07-30 00:36:00,82.0,78.4,30.13,SE,135,4.6,4.6,89,0.00,BKN,SCT,0.00,WeatherDisplay:10.37,2013-07-30 04:36:00,
2013-07-30 00:41:00,82.0,78.4,30.13,ESE,112,5.8,5.8,89,0.00,BKN,SCT,0.00,WeatherDisplay:10.37,2013-07-30 04:41:00,
2013-07-30 00:46:00,82.0,78.4,30.13,ESE,112,4.8,4.8,89,0.00,BKN,SCT,0.00,WeatherDisplay:10.37,2013-07-30 04:46:00,
2013-07-30 00:53:00,82.0,78.4,30.13,East,90,6.9,6.9,89,0.00,BKN,SCT,0.00,WeatherDisplay:10.37,2013-07-30 04:53:00,
2013-07-30 00:58:00,82.0,78.1,30.13,East,90,3.8,3.8,88,0.00,BKN,SCT,0.00,WeatherDisplay:10.37,2013-07-30 04:58:00,
2013-07-30 01:03:00,82.0,78.1,30.13,North,360,3.5,3.5,88,0.00,BKN,SCT,0.00,WeatherDisplay:10.37,2013-07-30 05:03:00,
2013-07-30 01:08:00,82.0,78.1,30.13,NW,315,4.8,4.8,88,0.00,BKN,SCT,0.00,WeatherDisplay:10.37,2013-07-30 05:08:00,
2013-07-30 01:13:00,82.0,78.1,30.13,ESE,112,4.6,4.6,88,0.00,BKN,SCT,0.00,WeatherDisplay:10.37,2013-07-30 05:13:00,
2013-07-30 01:18:00,81.9,78.0,30.13,ESE,112,4.6,4.6,88,0.00,BKN,SCT,0.00,WeatherDisplay:10.37,2013-07-30 05:18:00,
2013-07-30 01:23:00,81.9,78.0,30.13,SSE,158,3.8,3.8,88,0.00,BKN,SCT,0.00,WeatherDisplay:10.37,2013-07-30 05:23:00,
2013-07-30 01:28:00,81.9,78.3,30.13,ESE,112,4.6,4.6,89,0.00,BKN,SCT,0.00,WeatherDisplay:10.37,2013-07-30 05:28:00,
2013-07-30 01:33:00,81.7,78.1,30.13,ESE,112,3.8,3.8,89,0.00,BKN,SCT,0.00,WeatherDisplay:10.37,2013-07-30 05:33:00,
2013-07-30 01:38:00,81.7,78.1,30.12,ESE,112,4.6,4.6,89,0.00,BKN,SCT,0.00,WeatherDisplay:10.37,2013-07-30 05:38:00,
2013-07-30 01:43:00,81.7,78.1,30.12,NE,45,2.7,2.7,89,0.00,BKN,SCT,0.00,WeatherDisplay:10.37,2013-07-30 05:43:00,
2013-07-30 01:48:00,81.7,78.1,30.12,East,90,4.6,4.6,89,0.00,BKN,SCT,0.00,WeatherDisplay:10.37,2013-07-30 05:48:00,
2013-07-30 01:54:00,81.9,78.3,30.12,SSE,158,4.6,4.6,89,0.00,BKN,SCT,0.00,WeatherDisplay:10.37,2013-07-30 05:54:00,
2013-07-30 01:59:00,81.9,78.3,30.12,East,90,4.8,4.8,89,0.00,BKN,SCT,0.00,WeatherDisplay:10.37,2013-07-30 05:59:00,
2013-07-30 02:04:00,81.9,78.3,30.12,SE,135,2.3,0.0,89,0.00,BKN,SCT,0.00,WeatherDisplay:10.37,2013-07-30 06:04:00,
2013-07-30 02:09:00,81.9,78.3,30.12,ESE,112,5.8,5.8,89,0.00,BKN,SCT,0.00,WeatherDisplay:10.37,2013-07-30 06:09:00,
2013-07-30 02:14:00,81.9,78.3,30.12,NNE,22,3.5,3.5,89,0.00,BKN,SCT,0.00,WeatherDisplay:10.37,2013-07-30 06:14:00,
2013-07-30 02:19:00,81.9,78.3,30.12,WSW,248,3.5,3.5,89,0.00,BKN,SCT,0.00,WeatherDisplay:10.37,2013-07-30 06:19:00,
2013-07-30 02:24:00,81.9,78.3,30.12,East,90,4.6,4.6,89,0.00,BKN,SCT,0.00,WeatherDisplay:10.37,2013-07-30 06:24:00,
2013-07-30 02:29:00,81.9,78.3,30.11,South,180,5.8,5.8,89,0.00,BKN,SCT,0.00,WeatherDisplay:10.37,2013-07-30 06:29:00,
2013-07-30 02:34:00,81.7,78.1,30.11,SSE,158,0.0,0.0,89,0.00,BKN,SCT,0.00,WeatherDisplay:10.37,2013-07-30 06:34:00,
2013-07-30 02:39:00,81.7,78.1,30.11,NE,45,3.5,3.5,89,0.00,BKN,SCT,0.00,WeatherDisplay:10.37,2013-07-30 06:39:00,
2013-07-30 02:44:00,81.7,78.1,30.11,NNW,338,1.7,1.7,89,0.00,BKN,SCT,0.00,WeatherDisplay:10.37,2013-07-30 06:44:00,
2013-07-30 02:49:00,81.7,78.5,30.11,ENE,68,3.8,3.8,90,0.00,BKN,SCT,0.00,WeatherDisplay:10.37,2013-07-30 06:49:00,
2013-07-30 02:54:00,81.5,78.3,30.11,ENE,68,4.3,4.3,90,0.00,BKN,SCT,0.00,WeatherDisplay:10.37,2013-07-30 06:54:00,
2013-07-30 02:59:00,81.5,77.9,30.11,NNE,22,2.7,2.7,89,0.00,BKN,SCT,0.00,WeatherDisplay:10.37,2013-07-30 06:59:00,
2013-07-30 03:04:00,81.5,77.9,30.10,ENE,68,0.0,0.0,89,0.00,BKN,SCT,0.00,WeatherDisplay:10.37,2013-07-30 07:04:00,
2013-07-30 03:10:00,81.5,77.9,30.10,East,101,0.0,2.0,89,0.00,BKN,SCT,0.00,WeatherDisplay:10.37,2013-07-30 07:10:00,
2013-07-30 03:15:00,81.5,78.3,30.10,NNW,338,2.3,2.3,90,0.00,BKN,SCT,0.00,WeatherDisplay:10.37,2013-07-30 07:15:00,
2013-07-30 03:20:00,81.5,78.3,30.10,ENE,68,4.6,4.6,90,0.00,BKN,SCT,0.00,WeatherDisplay:10.37,2013-07-30 07:20:00,
2013-07-30 03:25:00,81.5,78.3,30.10,West,270,2.3,2.3,90,0.00,BKN,SCT,0.00,WeatherDisplay:10.37,2013-07-30 07:25:00,
2013-07-30 03:30:00,81.5,78.3,30.10,ESE,112,3.5,3.5,90,0.00,BKN,SCT,0.00,WeatherDisplay:10.37,2013-07-30 07:30:00,
2013-07-30 03:35:00,81.5,78.3,30.10,SSE,158,1.2,0.0,90,0.00,BKN,SCT,0.00,WeatherDisplay:10.37,2013-07-30 07:35:00,
2013-07-30 03:40:00,81.3,78.1,30.10,SSE,158,0.0,0.0,90,0.00,BKN,SCT,0.00,WeatherDisplay:10.37,2013-07-30 07:40:00,
2013-07-30 03:45:00,81.1,77.9,30.10,ESE,112,3.5,3.5,90,0.00,BKN,SCT,0.00,WeatherDisplay:10.37,2013-07-30 07:45:00,
2013-07-30 03:50:00,80.8,76.9,30.10,North,360,3.8,3.8,88,0.00,BKN,SCT,0.00,WeatherDisplay:10.37,2013-07-30 07:50:00,
2013-07-30 03:55:00,80.6,76.4,30.10,SE,135,0.0,0.0,87,0.00,BKN,SCT,0.00,WeatherDisplay:10.37,2013-07-30 07:55:00,
2013-07-30 04:00:00,80.6,76.4,30.10,South,180,0.0,0.0,87,0.00,BKN,SCT,0.00,WeatherDisplay:10.37,2013-07-30 08:00:00,
2013-07-30 04:05:00,80.6,76.7,30.10,ENE,68,2.3,2.3,88,0.00,BKN,SCT,0.00,WeatherDisplay:10.37,2013-07-30 08:05:00,
2013-07-30 04:10:00,80.6,76.7,30.10,ESE,112,3.5,3.5,88,0.00,BKN,SCT,0.00,WeatherDisplay:10.37,2013-07-30 08:10:00,
2013-07-30 04:15:00,80.4,76.9,30.10,South,180,0.0,0.0,89,0.00,BKN,SCT,0.00,WeatherDisplay:10.37,2013-07-30 08:15:00,
2013-07-30 04:21:00,80.4,77.2,30.10,East,90,0.0,0.0,90,0.00,BKN,SCT,0.00,WeatherDisplay:10.37,2013-07-30 08:21:00,
2013-07-30 04:26:00,80.4,77.5,30.09,NNE,22,3.5,3.5,91,0.00,BKN,SCT,0.00,WeatherDisplay:10.37,2013-07-30 08:26:00,
2013-07-30 04:31:00,80.6,77.7,30.09,NW,315,3.5,3.5,91,0.00,BKN,SCT,0.00,WeatherDisplay:10.37,2013-07-30 08:31:00,
2013-07-30 04:36:00,80.8,77.9,30.09,ENE,68,2.3,2.3,91,0.00,BKN,SCT,0.00,WeatherDisplay:10.37,2013-07-30 08:36:00,
2013-07-30 04:41:00,81.0,78.1,30.09,South,180,3.5,3.5,91,0.00,BKN,SCT,0.00,WeatherDisplay:10.37,2013-07-30 08:41:00,
2013-07-30 04:46:00,81.0,78.1,30.09,SSE,158,3.5,3.5,91,0.00,BKN,SCT,0.00,WeatherDisplay:10.37,2013-07-30 08:46:00,
2013-07-30 04:52:00,81.3,78.4,30.10,South,180,4.6,4.6,91,0.00,BKN,SCT,0.00,WeatherDisplay:10.37,2013-07-30 08:52:00,
2013-07-30 04:57:00,81.7,78.1,30.10,ESE,112,5.9,5.9,89,0.00,BKN,SCT,0.00,WeatherDisplay:10.37,2013-07-30 08:57:00,
2013-07-30 05:02:00,81.0,74.6,30.11,North,360,5.9,5.9,81,0.00,BKN,SCT,0.00,WeatherDisplay:10.37,2013-07-30 09:02:00,
2013-07-30 05:07:00,80.4,71.7,30.11,SSE,158,4.6,4.6,75,0.00,BKN,SCT,0.00,WeatherDisplay:10.37,2013-07-30 09:07:00,
2013-07-30 05:12:00,80.1,70.7,30.11,SW,225,5.9,5.9,73,0.00,BKN,SCT,0.00,WeatherDisplay:10.37,2013-07-30 09:12:00,
2013-07-30 05:18:00,79.7,69.9,30.10,South,180,4.6,4.6,72,0.00,BKN,SCT,0.00,WeatherDisplay:10.37,2013-07-30 09:18:00,
2013-07-30 05:23:00,79.3,71.1,30.10,SSW,202,4.8,4.8,76,0.00,BKN,SCT,0.00,WeatherDisplay:10.37,2013-07-30 09:23:00,
2013-07-30 05:28:00,79.0,72.3,30.10,SW,225,4.6,4.6,80,0.00,BKN,SCT,0.00,WeatherDisplay:10.37,2013-07-30 09:28:00,
2013-07-30 05:33:00,78.8,73.2,30.10,SSW,202,2.7,2.7,83,0.00,BKN,SCT,0.00,WeatherDisplay:10.37,2013-07-30 09:33:00,
2013-07-30 05:38:00,78.6,73.4,30.10,South,180,1.2,0.0,84,0.00,BKN,SCT,0.00,WeatherDisplay:10.37,2013-07-30 09:38:00,
2013-07-30 05:43:00,78.3,73.1,30.10,SSW,202,1.2,0.0,84,0.00,BKN,SCT,0.00,WeatherDisplay:10.37,2013-07-30 09:43:00,
2013-07-30 05:48:00,78.3,73.1,30.10,SSW,202,0.0,0.0,84,0.00,BKN,SCT,0.00,WeatherDisplay:10.37,2013-07-30 09:48:00,
2013-07-30 05:53:00,77.9,73.0,30.10,SW,225,1.7,1.7,85,0.00,BKN,SCT,0.00,WeatherDisplay:10.37,2013-07-30 09:53:00,
2013-07-30 05:58:00,77.7,72.8,30.10,WSW,248,0.0,0.0,85,0.00,BKN,SCT,0.00,WeatherDisplay:10.37,2013-07-30 09:58:00,
2013-07-30 06:03:00,77.5,72.6,30.09,NNE,22,0.0,0.0,85,0.00,BKN,SCT,0.00,WeatherDisplay:10.37,2013-07-30 10:03:00,
2013-07-30 06:08:00,77.4,72.9,30.09,NE,45,0.0,0.0,86,0.00,-RA,SCT,0.00,WeatherDisplay:10.37,2013-07-30 10:08:00,
2013-07-30 06:13:00,77.2,72.7,30.09,NNE,22,0.0,0.0,86,0.00,-RA,SCT,0.00,WeatherDisplay:10.37,2013-07-30 10:13:00,
2013-07-30 06:18:00,77.0,72.8,30.09,NNW,338,0.0,0.0,87,0.00,-RA,SCT,0.00,WeatherDisplay:10.37,2013-07-30 10:18:00,
2013-07-30 06:23:00,76.8,73.0,30.09,West,270,0.0,0.0,88,0.00,-RA,SCT,0.00,WeatherDisplay:10.37,2013-07-30 10:23:00,
2013-07-30 06:28:00,76.5,72.7,30.09,WSW,248,0.0,0.0,88,0.00,-RA,SCT,0.00,WeatherDisplay:10.37,2013-07-30 10:28:00,
2013-07-30 06:34:00,76.3,72.8,30.09,North,360,0.0,0.0,89,0.00,-RA,SCT,0.00,WeatherDisplay:10.37,2013-07-30 10:34:00,
2013-07-30 06:39:00,76.1,72.6,30.10,SW,225,0.0,0.0,89,0.00,-RA,SCT,0.00,WeatherDisplay:10.37,2013-07-30 10:39:00,
2013-07-30 06:44:00,76.1,72.6,30.10,ESE,112,0.0,0.0,89,0.00,-RA,SCT,0.00,WeatherDisplay:10.37,2013-07-30 10:44:00,
2013-07-30 06:49:00,75.9,72.4,30.10,SSE,158,0.0,0.0,89,0.00,-RA,SCT,0.00,WeatherDisplay:10.37,2013-07-30 10:49:00,
2013-07-30 06:54:00,75.9,72.4,30.10,WSW,248,0.0,0.0,89,0.00,-RA,SCT,0.00,WeatherDisplay:10.37,2013-07-30 10:54:00,
2013-07-30 06:59:00,75.9,72.4,30.10,NE,45,0.0,0.0,89,0.00,-RA,SCT,0.00,WeatherDisplay:10.37,2013-07-30 10:59:00,
2013-07-30 07:04:00,76.1,73.0,30.10,SSW,202,0.0,0.0,90,0.00,-RA,SCT,0.00,WeatherDisplay:10.37,2013-07-30 11:04:00,
2013-07-30 07:09:00,76.1,73.3,30.10,South,180,0.0,0.0,91,0.00,BKN,SCT,0.00,WeatherDisplay:10.37,2013-07-30 11:09:00,
2013-07-30 07:14:00,76.3,73.5,30.10,ESE,112,0.0,0.0,91,0.00,BKN,SCT,0.00,WeatherDisplay:10.37,2013-07-30 11:14:00,
2013-07-30 07:19:00,76.6,74.1,30.10,ENE,68,0.0,0.0,92,0.00,BKN,SCT,0.00,WeatherDisplay:10.37,2013-07-30 11:19:00,
2013-07-30 07:24:00,77.4,75.2,30.10,ENE,68,0.0,0.0,93,0.00,BKN,SCT,0.00,WeatherDisplay:10.37,2013-07-30 11:24:00,
2013-07-30 07:29:00,78.3,76.7,30.11,SSE,158,2.7,2.7,95,0.00,BKN,SCT,0.00,WeatherDisplay:10.37,2013-07-30 11:29:00,
2013-07-30 07:34:00,79.2,77.6,30.11,NNE,22,2.2,2.2,95,0.00,BKN,SCT,0.00,WeatherDisplay:10.37,2013-07-30 11:34:00,
2013-07-30 07:39:00,80.2,78.3,30.12,ESE,112,4.6,4.6,94,0.00,BKN,SCT,0.00,WeatherDisplay:10.37,2013-07-30 11:39:00,
2013-07-30 07:44:00,81.5,78.6,30.12,West,270,3.5,3.5,91,0.00,BKN,SCT,0.00,WeatherDisplay:10.37,2013-07-30 11:44:00,
2013-07-30 07:50:00,82.2,78.6,30.11,SSE,158,3.5,3.5,89,0.00,BKN,SCT,0.00,WeatherDisplay:10.37,2013-07-30 11:50:00,
2013-07-30 07:55:00,82.8,78.9,30.11,SE,128,3.0,5.0,88,0.00,BKN,SCT,0.00,WeatherDisplay:10.37,2013-07-30 11:55:00,
2013-07-30 08:00:00,82.9,79.0,30.11,ESE,116,1.0,4.0,88,0.00,BKN,SCT,0.00,WeatherDisplay:10.37,2013-07-30 12:00:00,
2013-07-30 08:05:00,83.6,79.4,30.12,East,92,1.0,4.0,87,0.00,BKN,SCT,0.00,WeatherDisplay:10.37,2013-07-30 12:05:00,
2013-07-30 08:10:00,84.1,79.4,30.12,SE,135,2.0,5.0,86,0.00,BKN,SCT,0.00,WeatherDisplay:10.37,2013-07-30 12:10:00,
2013-07-30 08:15:00,84.7,79.3,30.12,SSE,152,3.0,5.0,84,0.00,BKN,SCT,0.00,WeatherDisplay:10.37,2013-07-30 12:15:00,
2013-07-30 08:20:00,85.8,79.7,30.12,ESE,122,1.0,5.0,82,0.00,BKN,SCT,0.00,WeatherDisplay:10.37,2013-07-30 12:20:00,
2013-07-30 08:25:00,87.4,80.0,30.12,ESE,119,3.0,5.0,79,0.00,BKN,SCT,0.00,WeatherDisplay:10.37,2013-07-30 12:25:00,
2013-07-30 08:30:00,87.7,80.4,30.13,SE,129,2.0,5.0,79,0.00,BKN,SCT,0.00,WeatherDisplay:10.37,2013-07-30 12:30:00,
2013-07-30 08:35:00,88.3,80.5,30.13,SSE,163,2.0,5.0,78,0.00,BKN,SCT,0.00,WeatherDisplay:10.37,2013-07-30 12:35:00,
2013-07-30 08:40:00,88.4,80.3,30.13,SE,127,2.0,5.0,77,0.00,BKN,SCT,0.00,WeatherDisplay:10.37,2013-07-30 12:40:00,
2013-07-30 08:45:00,88.0,80.3,30.13,SE,129,2.0,4.0,78,0.00,BKN,SCT,0.00,WeatherDisplay:10.37,2013-07-30 12:45:00,
2013-07-30 08:50:00,88.3,80.2,30.14,ENE,70,5.0,6.0,77,0.00,BKN,SCT,0.00,WeatherDisplay:10.37,2013-07-30 12:50:00,
2013-07-30 08:55:00,89.7,80.3,30.14,East,82,5.0,6.0,74,0.00,BKN,SCT,0.00,WeatherDisplay:10.37,2013-07-30 12:55:00,
2013-07-30 09:00:00,89.9,80.5,30.14,ESE,110,3.0,7.0,74,0.00,BKN,SCT,0.00,WeatherDisplay:10.37,2013-07-30 13:00:00,
2013-07-30 09:05:00,90.9,80.6,30.15,SE,145,3.0,5.0,72,0.00,BKN,SCT,0.00,WeatherDisplay:10.37,2013-07-30 13:05:00,
2013-07-30 09:10:00,91.4,80.7,30.15,SE,126,5.0,7.0,71,0.00,BKN,SCT,0.00,WeatherDisplay:10.37,2013-07-30 13:10:00,
2013-07-30 09:15:00,91.2,80.5,30.15,East,92,3.0,7.0,71,0.00,BKN,SCT,0.00,WeatherDisplay:10.37,2013-07-30 13:15:00,
2013-07-30 09:20:00,91.2,80.5,30.15,ESE,114,2.0,5.0,71,0.00,BKN,SCT,0.00,WeatherDisplay:10.37,2013-07-30 13:20:00,
2013-07-30 09:25:00,88.0,79.9,30.15,East,88,3.0,6.0,77,0.00,BKN,SCT,0.00,WeatherDisplay:10.37,2013-07-30 13:25:00,
2013-07-30 09:30:00,88.7,80.2,30.15,SE,129,0.0,5.0,76,0.00,BKN,SCT,0.00,WeatherDisplay:10.37,2013-07-30 13:30:00,
2013-07-30 09:35:00,88.9,79.6,30.15,ESE,123,5.0,7.0,74,0.00,BKN,SCT,0.00,WeatherDisplay:10.37,2013-07-30 13:35:00,
2013-07-30 09:40:00,88.3,79.8,30.15,ESE,112,6.9,6.9,76,0.00,BKN,SCT,0.00,WeatherDisplay:10.37,2013-07-30 13:40:00,
2013-07-30 09:45:00,88.0,79.9,30.15,West,270,6.9,6.9,77,0.00,BKN,SCT,0.00,WeatherDisplay:10.37,2013-07-30 13:45:00,
2013-07-30 09:50:00,87.8,78.9,30.15,SSE,158,5.8,5.8,75,0.00,BKN,SCT,0.00,WeatherDisplay:10.37,2013-07-30 13:50:00,
2013-07-30 09:55:00,87.8,78.9,30.15,SSE,158,4.6,4.6,75,0.00,BKN,SCT,0.00,WeatherDisplay:10.37,2013-07-30 13:55:00,
2013-07-30 10:00:00,87.6,79.5,30.15,East,90,6.9,6.9,77,0.00,BKN,SCT,0.00,WeatherDisplay:10.37,2013-07-30 14:00:00,
2013-07-30 10:05:00,86.7,79.4,30.15,SSW,202,5.8,5.8,79,0.00,BKN,SCT,0.00,WeatherDisplay:10.37,2013-07-30 14:05:00,
2013-07-30 10:10:00,87.1,79.8,30.15,ESE,112,6.9,6.9,79,0.00,BKN,SCT,0.00,WeatherDisplay:10.37,2013-07-30 14:10:00,
2013-07-30 10:15:00,89.8,80.8,30.15,SE,135,4.6,4.6,75,0.00,BKN,SCT,0.00,WeatherDisplay:10.37,2013-07-30 14:15:00,
2013-07-30 10:20:00,90.3,80.9,30.15,NNE,22,4.6,4.6,74,0.00,BKN,SCT,0.00,WeatherDisplay:10.37,2013-07-30 14:20:00,
2013-07-30 10:25:00,89.6,80.2,30.16,SE,135,5.8,5.8,74,0.00,BKN,SCT,0.00,WeatherDisplay:10.37,2013-07-30 14:25:00,
2013-07-30 10:30:00,89.6,80.2,30.16,SSW,202,7.5,7.5,74,0.00,BKN,SCT,0.00,WeatherDisplay:10.37,2013-07-30 14:30:00,
2013-07-30 10:35:00,90.5,80.7,30.16,ESE,112,6.4,6.4,73,0.00,BKN,SCT,0.00,WeatherDisplay:10.37,2013-07-30 14:35:00,
2013-07-30 10:41:00,90.3,80.0,30.16,ESE,112,6.9,6.9,72,0.00,BKN,SCT,0.00,WeatherDisplay:10.37,2013-07-30 14:41:00,
2013-07-30 10:46:00,91.0,80.3,30.16,SE,135,4.8,4.8,71,0.00,BKN,SCT,0.00,WeatherDisplay:10.37,2013-07-30 14:46:00,
2013-07-30 10:51:00,90.3,80.0,30.16,ESE,112,5.8,5.8,72,0.00,BKN,SCT,0.00,WeatherDisplay:10.37,2013-07-30 14:51:00,
2013-07-30 10:56:00,90.3,79.6,30.16,NNE,22,10.4,10.4,71,0.00,BKN,SCT,0.00,WeatherDisplay:10.37,2013-07-30 14:56:00,
2013-07-30 11:01:00,90.3,80.0,30.16,East,90,6.9,6.9,72,0.00,BKN,SCT,0.00,WeatherDisplay:10.37,2013-07-30 15:01:00,
2013-07-30 11:06:00,90.5,79.8,30.16,ENE,68,5.9,5.9,71,0.00,BKN,SCT,0.00,WeatherDisplay:10.37,2013-07-30 15:06:00,
2013-07-30 11:12:00,91.0,80.3,30.16,ESE,112,5.8,5.8,71,0.00,BKN,SCT,0.00,WeatherDisplay:10.37,2013-07-30 15:12:00,
2013-07-30 11:17:00,90.9,80.2,30.17,NE,45,4.6,4.6,71,0.00,BKN,SCT,0.00,WeatherDisplay:10.37,2013-07-30 15:17:00,
2013-07-30 11:22:00,91.4,80.2,30.17,NE,45,5.8,5.8,70,0.00,BKN,SCT,0.00,WeatherDisplay:10.37,2013-07-30 15:22:00,
2013-07-30 11:27:00,91.2,80.5,30.16,SSE,158,5.8,5.8,71,0.00,BKN,SCT,0.00,WeatherDisplay:10.37,2013-07-30 15:27:00,
2013-07-30 11:32:00,91.6,80.9,30.16,NE,45,5.8,5.8,71,0.00,BKN,SCT,0.00,WeatherDisplay:10.37,2013-07-30 15:32:00,
2013-07-30 11:37:00,92.1,81.3,30.16,NE,45,6.9,6.9,71,0.00,BKN,SCT,0.00,WeatherDisplay:10.37,2013-07-30 15:37:00,
2013-07-30 11:42:00,92.1,81.3,30.16,NE,45,5.8,5.8,71,0.00,BKN,SCT,0.00,WeatherDisplay:10.37,2013-07-30 15:42:00,
2013-07-30 11:47:00,90.0,80.6,30.16,SSE,158,6.9,6.9,74,0.00,BKN,SCT,0.00,WeatherDisplay:10.37,2013-07-30 15:47:00,
2013-07-30 11:52:00,91.2,80.9,30.16,ESE,112,8.0,8.0,72,0.00,BKN,SCT,0.00,WeatherDisplay:10.37,2013-07-30 15:52:00,
2013-07-30 11:57:00,90.7,80.4,30.16,SSW,202,8.5,8.5,72,0.00,BKN,SCT,0.00,WeatherDisplay:10.37,2013-07-30 15:57:00,
2013-07-30 12:02:00,91.0,81.1,30.16,NNE,22,6.9,6.9,73,0.00,BKN,SCT,0.00,WeatherDisplay:10.37,2013-07-30 16:02:00,
2013-07-30 12:07:00,91.0,80.7,30.16,ESE,112,6.9,6.9,72,0.00,BKN,SCT,0.00,WeatherDisplay:10.37,2013-07-30 16:07:00,
2013-07-30 12:12:00,90.7,80.8,30.16,North,360,6.4,6.4,73,0.00,BKN,SCT,0.00,WeatherDisplay:10.37,2013-07-30 16:12:00,
2013-07-30 12:17:00,90.7,80.4,30.15,NE,45,8.1,8.1,72,0.00,BKN,SCT,0.00,WeatherDisplay:10.37,2013-07-30 16:17:00,
2013-07-30 12:23:00,91.2,80.0,30.15,SSW,202,8.1,8.1,70,0.00,BKN,SCT,0.00,WeatherDisplay:10.37,2013-07-30 16:23:00,
2013-07-30 12:28:00,91.2,80.5,30.15,East,90,8.1,8.1,71,0.00,BKN,SCT,0.00,WeatherDisplay:10.37,2013-07-30 16:28:00,
2013-07-30 12:33:00,91.6,80.9,30.15,NE,45,5.8,5.8,71,0.00,BKN,SCT,0.00,WeatherDisplay:10.37,2013-07-30 16:33:00,
2013-07-30 12:38:00,91.4,81.1,30.15,NNE,22,6.9,6.9,72,0.00,BKN,SCT,0.00,WeatherDisplay:10.37,2013-07-30 16:38:00,
2013-07-30 12:43:00,92.3,81.1,30.15,SSE,158,8.1,8.1,70,0.00,BKN,SCT,0.00,WeatherDisplay:10.37,2013-07-30 16:43:00,
2013-07-30 12:48:00,91.9,81.1,30.15,ESE,112,6.9,6.9,71,0.00,BKN,SCT,0.00,WeatherDisplay:10.37,2013-07-30 16:48:00,
2013-07-30 12:53:00,91.2,80.9,30.15,ESE,112,6.9,6.9,72,0.00,BKN,SCT,0.00,WeatherDisplay:10.37,2013-07-30 16:53:00,
2013-07-30 12:58:00,92.1,80.9,30.15,East,90,6.9,6.9,70,0.00,BKN,SCT,0.00,WeatherDisplay:10.37,2013-07-30 16:58:00,
2013-07-30 13:03:00,92.1,80.9,30.15,ESE,112,5.4,5.4,70,0.00,BKN,SCT,0.00,WeatherDisplay:10.37,2013-07-30 17:03:00,
2013-07-30 13:08:00,91.8,80.2,30.15,NNW,338,10.4,10.4,69,0.00,BKN,SCT,0.00,WeatherDisplay:10.37,2013-07-30 17:08:00,
2013-07-30 13:13:00,92.3,80.7,30.15,ESE,112,5.8,5.8,69,0.00,BKN,SCT,0.00,WeatherDisplay:10.37,2013-07-30 17:13:00,
2013-07-30 13:18:00,91.8,80.2,30.15,SE,135,6.9,6.9,69,0.00,BKN,SCT,0.00,WeatherDisplay:10.37,2013-07-30 17:18:00,
2013-07-30 13:23:00,91.8,80.2,30.15,North,360,8.1,8.1,69,0.00,BKN,SCT,0.00,WeatherDisplay:10.37,2013-07-30 17:23:00,
2013-07-30 13:28:00,91.9,80.7,30.14,NE,45,6.9,6.9,70,0.00,BKN,SCT,0.00,WeatherDisplay:10.37,2013-07-30 17:28:00,
2013-07-30 13:33:00,91.6,80.9,30.14,ENE,68,6.9,6.9,71,0.00,BKN,SCT,0.00,WeatherDisplay:10.37,2013-07-30 17:33:00,
2013-07-30 13:39:00,91.9,80.7,30.14,West,270,6.9,6.9,70,0.00,BKN,SCT,0.00,WeatherDisplay:10.37,2013-07-30 17:39:00,
2013-07-30 13:44:00,91.9,80.7,30.14,East,90,6.9,6.9,70,0.00,BKN,SCT,0.00,WeatherDisplay:10.37,2013-07-30 17:44:00,
2013-07-30 13:49:00,92.7,81.5,30.14,SE,135,5.8,5.8,70,0.00,BKN,SCT,0.00,WeatherDisplay:10.37,2013-07-30 17:49:00,
2013-07-30 13:54:00,92.7,81.5,30.14,SE,135,3.8,3.8,70,0.00,BKN,SCT,0.00,WeatherDisplay:10.37,2013-07-30 17:54:00,
2013-07-30 13:59:00,92.7,81.5,30.14,WNW,292,4.6,4.6,70,0.00,BKN,SCT,0.00,WeatherDisplay:10.37,2013-07-30 17:59:00,
2013-07-30 14:04:00,92.8,81.1,30.14,NE,45,6.9,6.9,69,0.00,BKN,SCT,0.00,WeatherDisplay:10.37,2013-07-30 18:04:00,
2013-07-30 14:09:00,91.9,81.1,30.14,North,360,5.8,5.8,71,0.00,BKN,SCT,0.00,WeatherDisplay:10.37,2013-07-30 18:09:00,
2013-07-30 14:14:00,92.3,81.1,30.14,East,90,6.9,6.9,70,0.00,BKN,SCT,0.00,WeatherDisplay:10.37,2013-07-30 18:14:00,
2013-07-30 14:19:00,92.5,81.3,30.14,SE,135,7.5,7.5,70,0.00,BKN,SCT,0.00,WeatherDisplay:10.37,2013-07-30 18:19:00,
2013-07-30 14:24:00,91.9,81.1,30.14,ESE,112,1.7,1.7,71,0.00,BKN,SCT,0.00,WeatherDisplay:10.37,2013-07-30 18:24:00,
2013-07-30 14:29:00,91.9,81.1,30.14,NNE,22,2.7,2.7,71,0.00,BKN,SCT,0.00,WeatherDisplay:10.37,2013-07-30 18:29:00,
2013-07-30 14:34:00,92.1,80.9,30.14,SW,225,6.9,6.9,70,0.00,BKN,SCT,0.00,WeatherDisplay:10.37,2013-07-30 18:34:00,
2013-07-30 14:39:00,92.3,81.1,30.14,SE,135,6.9,6.9,70,0.00,BKN,SCT,0.00,WeatherDisplay:10.37,2013-07-30 18:39:00,
2013-07-30 14:44:00,92.3,81.1,30.14,ESE,112,5.4,5.4,70,0.00,BKN,SCT,0.00,WeatherDisplay:10.37,2013-07-30 18:44:00,
2013-07-30 14:49:00,92.1,80.5,30.13,East,90,6.9,6.9,69,0.00,BKN,SCT,0.00,WeatherDisplay:10.37,2013-07-30 18:49:00,
2013-07-30 14:55:00,91.8,80.6,30.13,SE,135,6.9,6.9,70,0.00,BKN,SCT,0.00,WeatherDisplay:10.37,2013-07-30 18:55:00,
2013-07-30 15:00:00,92.1,80.9,30.13,ENE,76,6.0,7.0,70,0.00,BKN,SCT,0.00,WeatherDisplay:10.37,2013-07-30 19:00:00,
2013-07-30 15:05:00,92.0,80.8,30.13,ENE,59,2.0,7.0,70,0.00,BKN,SCT,0.00,WeatherDisplay:10.37,2013-07-30 19:05:00,
2013-07-30 15:10:00,92.4,81.2,30.13,ENE,75,2.0,6.0,70,0.00,BKN,SCT,0.00,WeatherDisplay:10.37,2013-07-30 19:10:00,
2013-07-30 15:15:00,93.2,81.1,30.13,NE,53,3.0,6.0,68,0.00,BKN,SCT,0.00,WeatherDisplay:10.37,2013-07-30 19:15:00,
2013-07-30 15:20:00,92.1,81.3,30.13,ESE,114,2.0,7.0,71,0.00,BKN,SCT,0.00,WeatherDisplay:10.37,2013-07-30 19:20:00,
2013-07-30 15:25:00,92.9,81.2,30.13,SE,133,5.0,7.0,69,0.00,BKN,SCT,0.00,WeatherDisplay:10.37,2013-07-30 19:25:00,
2013-07-30 15:30:00,92.2,81.0,30.12,East,98,5.0,7.0,70,0.00,BKN,SCT,0.00,WeatherDisplay:10.37,2013-07-30 19:30:00,
2013-07-30 15:35:00,92.3,81.1,30.12,East,96,5.0,7.0,70,0.00,BKN,SCT,0.00,WeatherDisplay:10.37,2013-07-30 19:35:00,
2013-07-30 15:39:00,92.3,80.7,30.11,NE,45,5.8,5.8,69,0.00,BKN,SCT,0.00,WeatherDisplay:10.37,2013-07-30 19:39:00,
2013-07-30 15:45:00,92.1,80.5,30.11,NE,38,3.0,7.0,69,0.00,BKN,SCT,0.00,WeatherDisplay:10.37,2013-07-30 19:45:00,
2013-07-30 15:50:00,92.6,81.0,30.11,NE,43,3.0,7.0,69,0.00,BKN,SCT,0.00,WeatherDisplay:10.37,2013-07-30 19:50:00,
2013-07-30 15:55:00,92.8,81.1,30.11,North,7,5.0,7.0,69,0.00,BKN,SCT,0.00,WeatherDisplay:10.37,2013-07-30 19:55:00,
2013-07-30 16:00:00,91.9,80.7,30.11,West,270,5.0,7.0,70,0.00,BKN,SCT,0.00,WeatherDisplay:10.37,2013-07-30 20:00:00,
2013-07-30 16:05:00,92.4,80.8,30.11,ENE,65,5.0,7.0,69,0.00,BKN,SCT,0.00,WeatherDisplay:10.37,2013-07-30 20:05:00,
2013-07-30 16:10:00,93.0,80.9,30.11,East,93,5.0,7.0,68,0.00,BKN,SCT,0.00,WeatherDisplay:10.37,2013-07-30 20:10:00,
2013-07-30 16:15:00,91.8,80.2,30.10,East,97,5.0,7.0,69,0.00,BKN,SCT,0.00,WeatherDisplay:10.37,2013-07-30 20:15:00,
2013-07-30 16:20:00,92.7,81.0,30.10,SE,129,5.0,7.0,69,0.00,BKN,SCT,0.00,WeatherDisplay:10.37,2013-07-30 20:20:00,
2013-07-30 16:25:00,91.3,81.0,30.10,SE,143,5.0,7.0,72,0.00,BKN,SCT,0.00,WeatherDisplay:10.37,2013-07-30 20:25:00,
2013-07-30 16:30:00,91.4,80.7,30.10,SSE,158,7.5,7.5,71,0.00,BKN,SCT,0.00,WeatherDisplay:10.37,2013-07-30 20:30:00,
2013-07-30 16:35:00,90.5,80.2,30.10,ESE,117,3.0,10.0,72,0.00,BKN,SCT,0.00,WeatherDisplay:10.37,2013-07-30 20:35:00,
2013-07-30 16:40:00,90.9,80.2,30.09,SE,127,6.0,8.0,71,0.00,BKN,SCT,0.00,WeatherDisplay:10.37,2013-07-30 20:40:00,
2013-07-30 16:45:00,90.6,80.7,30.09,ESE,116,3.0,8.0,73,0.00,BKN,SCT,0.00,WeatherDisplay:10.37,2013-07-30 20:45:00,
2013-07-30 16:50:00,93.4,79.4,30.09,ESE,103,5.0,7.0,64,0.00,BKN,SCT,0.00,WeatherDisplay:10.37,2013-07-30 20:50:00,
2013-07-30 16:55:00,94.1,79.6,30.09,ESE,117,5.0,7.0,63,0.00,BKN,SCT,0.00,WeatherDisplay:10.37,2013-07-30 20:55:00,
2013-07-30 17:00:00,95.2,80.1,30.09,SE,135,3.0,6.0,62,0.00,BKN,SCT,0.00,WeatherDisplay:10.37,2013-07-30 21:00:00,
2013-07-30 17:05:00,95.1,80.0,30.10,ENE,70,3.0,6.0,62,0.00,BKN,SCT,0.00,WeatherDisplay:10.37,2013-07-30 21:05:00,
2013-07-30 17:10:00,95.2,80.6,30.10,East,87,3.0,6.0,63,0.00,SCT,SCT,0.00,WeatherDisplay:10.37,2013-07-30 21:10:00,
2013-07-30 17:15:00,95.7,80.1,30.09,NNE,22,2.7,2.7,61,0.00,SCT,,0.00,WeatherDisplay:10.37,2013-07-30 21:15:00,
2013-07-30 17:20:00,95.9,79.8,30.09,NNE,22,4.8,4.8,60,0.00,SCT,,0.00,WeatherDisplay:10.37,2013-07-30 21:20:00,
2013-07-30 17:25:00,94.6,79.1,30.09,South,180,5.8,5.8,61,0.00,SCT,,0.00,WeatherDisplay:10.37,2013-07-30 21:25:00,
2013-07-30 17:30:00,94.5,79.5,30.09,NNE,22,4.3,4.3,62,0.00,SCT,,0.00,WeatherDisplay:10.37,2013-07-30 21:30:00,
2013-07-30 17:35:00,93.7,78.7,30.09,ESE,112,6.4,6.4,62,0.00,SCT,,0.00,WeatherDisplay:10.37,2013-07-30 21:35:00,
2013-07-30 17:40:00,93.4,78.4,30.08,NW,315,4.6,4.6,62,0.00,SCT,,0.00,WeatherDisplay:10.37,2013-07-30 21:40:00,
2013-07-30 17:46:00,93.6,79.1,30.08,ESE,112,5.8,5.8,63,0.00,SCT,,0.00,WeatherDisplay:10.37,2013-07-30 21:46:00,
2013-07-30 17:51:00,93.4,78.9,30.08,NNE,22,4.6,4.6,63,0.00,SCT,,0.00,WeatherDisplay:10.37,2013-07-30 21:51:00,
2013-07-30 17:56:00,92.5,79.0,30.08,NE,45,4.8,4.8,65,0.00,SCT,,0.00,WeatherDisplay:10.37,2013-07-30 21:56:00,
2013-07-30 18:01:00,92.7,79.7,30.08,East,90,3.5,3.5,66,0.00,SCT,,0.00,WeatherDisplay:10.37,2013-07-30 22:01:00,
2013-07-30 18:06:00,92.5,79.9,30.08,East,90,4.6,4.6,67,0.00,SCT,,0.00,WeatherDisplay:10.37,2013-07-30 22:06:00,
2013-07-30 18:11:00,91.8,79.7,30.08,ENE,68,6.9,6.9,68,0.00,SCT,,0.00,WeatherDisplay:10.37,2013-07-30 22:11:00,
2013-07-30 18:17:00,91.8,79.7,30.08,SSW,202,6.9,6.9,68,0.00,SCT,,0.00,WeatherDisplay:10.37,2013-07-30 22:17:00,
2013-07-30 18:22:00,91.4,79.8,30.08,SW,225,4.6,4.6,69,0.00,SCT,,0.00,WeatherDisplay:10.37,2013-07-30 22:22:00,
2013-07-30 18:27:00,91.8,80.2,30.08,North,360,2.7,2.7,69,0.00,SCT,,0.00,WeatherDisplay:10.37,2013-07-30 22:27:00,
2013-07-30 18:32:00,90.9,79.8,30.08,SE,135,5.9,5.9,70,0.00,SCT,,0.00,WeatherDisplay:10.37,2013-07-30 22:32:00,
2013-07-30 18:37:00,91.0,79.8,30.09,South,180,6.9,6.9,70,0.00,SCT,,0.00,WeatherDisplay:10.37,2013-07-30 22:37:00,
2013-07-30 18:42:00,90.5,79.8,30.09,SE,135,3.8,3.8,71,0.00,SCT,,0.00,WeatherDisplay:10.37,2013-07-30 22:42:00,
2013-07-30 18:47:00,90.5,79.8,30.09,NW,315,4.6,4.6,71,0.00,SCT,,0.00,WeatherDisplay:10.37,2013-07-30 22:47:00,
2013-07-30 18:52:00,90.3,79.6,30.08,East,90,4.3,4.3,71,0.00,SCT,,0.00,WeatherDisplay:10.37,2013-07-30 22:52:00,
2013-07-30 18:57:00,90.0,79.3,30.08,NE,45,4.8,4.8,71,0.00,SCT,,0.00,WeatherDisplay:10.37,2013-07-30 22:57:00,
2013-07-30 19:02:00,89.8,79.6,30.09,South,180,2.7,2.7,72,0.00,SCT,,0.00,WeatherDisplay:10.37,2013-07-30 23:02:00,
2013-07-30 19:07:00,88.9,79.1,30.09,ESE,112,4.6,4.6,73,0.00,SCT,,0.00,WeatherDisplay:10.37,2013-07-30 23:07:00,
2013-07-30 19:12:00,88.9,79.5,30.09,ESE,112,3.5,3.5,74,0.00,SCT,,0.00,WeatherDisplay:10.37,2013-07-30 23:12:00,
2013-07-30 19:17:00,88.7,79.3,30.09,NNE,22,4.6,4.6,74,0.00,SCT,,0.00,WeatherDisplay:10.37,2013-07-30 23:17:00,
2013-07-30 19:22:00,88.7,79.3,30.09,NE,45,0.0,0.0,74,0.00,SCT,,0.00,WeatherDisplay:10.37,2013-07-30 23:22:00,
2013-07-30 19:28:00,88.0,78.7,30.09,North,360,4.6,4.6,74,0.00,SCT,,0.00,WeatherDisplay:10.37,2013-07-30 23:28:00,
2013-07-30 19:33:00,87.8,78.5,30.09,NNW,338,2.7,2.7,74,0.00,SCT,,0.00,WeatherDisplay:10.37,2013-07-30 23:33:00,
2013-07-30 19:38:00,87.1,78.2,30.09,SE,135,4.6,4.6,75,0.00,SCT,,0.00,WeatherDisplay:10.37,2013-07-30 23:38:00,
2013-07-30 19:43:00,86.9,78.0,30.09,NNE,22,4.6,4.6,75,0.00,SCT,,0.00,WeatherDisplay:10.37,2013-07-30 23:43:00,
2013-07-30 19:48:00,86.4,77.9,30.09,NE,45,4.6,4.6,76,0.00,SCT,,0.00,WeatherDisplay:10.37,2013-07-30 23:48:00,
2013-07-30 19:53:00,86.0,77.9,30.10,NE,45,3.5,3.5,77,0.00,SCT,,0.00,WeatherDisplay:10.37,2013-07-30 23:53:00,
2013-07-30 19:58:00,85.6,77.6,30.10,ESE,112,4.6,4.6,77,0.00,SCT,,0.00,WeatherDisplay:10.37,2013-07-30 23:58:00,
2013-07-30 20:03:00,85.3,77.7,30.10,ENE,68,3.8,3.8,78,0.00,SCT,,0.00,WeatherDisplay:10.37,2013-07-31 00:03:00,
2013-07-30 20:08:00,84.9,77.7,30.10,East,90,2.3,2.3,79,0.00,SCT,,0.00,WeatherDisplay:10.37,2013-07-31 00:08:00,
2013-07-30 20:13:00,84.7,77.5,30.10,ESE,112,5.8,5.8,79,0.00,SCT,,0.00,WeatherDisplay:10.37,2013-07-31 00:13:00,
2013-07-30 20:18:00,84.6,77.4,30.10,NNW,338,3.5,3.5,79,0.00,SCT,,0.00,WeatherDisplay:10.37,2013-07-31 00:18:00,
2013-07-30 20:23:00,84.4,77.2,30.10,ESE,112,5.4,5.4,79,0.00,SCT,,0.00,WeatherDisplay:10.37,2013-07-31 00:23:00,
2013-07-30 20:28:00,84.2,77.0,30.10,North,360,5.8,5.8,79,0.00,SCT,,0.00,WeatherDisplay:10.37,2013-07-31 00:28:00,
2013-07-30 20:33:00,84.2,77.0,30.10,ESE,112,2.7,2.7,79,0.00,SCT,,0.00,WeatherDisplay:10.37,2013-07-31 00:33:00,
2013-07-30 20:38:00,84.0,76.4,30.11,NNE,22,2.7,2.7,78,0.00,SCT,,0.00,WeatherDisplay:10.37,2013-07-31 00:38:00,
2013-07-30 20:44:00,83.8,76.2,30.11,SW,225,4.6,4.6,78,0.00,SCT,,0.00,WeatherDisplay:10.37,2013-07-31 00:44:00,
2013-07-30 20:49:00,83.8,76.6,30.11,ESE,112,3.8,3.8,79,0.00,SCT,,0.00,WeatherDisplay:10.37,2013-07-31 00:49:00,
2013-07-30 20:54:00,83.8,76.6,30.11,SSE,158,5.8,5.8,79,0.00,SCT,,0.00,WeatherDisplay:10.37,2013-07-31 00:54:00,
2013-07-30 20:59:00,83.7,76.5,30.11,East,90,5.9,5.9,79,0.00,SCT,,0.00,WeatherDisplay:10.37,2013-07-31 00:59:00,
2013-07-30 21:04:00,83.7,76.5,30.11,SSE,158,4.6,4.6,79,0.00,SCT,,0.00,WeatherDisplay:10.37,2013-07-31 01:04:00,
2013-07-30 21:09:00,83.7,76.9,30.11,SSE,158,4.8,4.8,80,0.00,SCT,,0.00,WeatherDisplay:10.37,2013-07-31 01:09:00,
2013-07-30 21:14:00,83.7,76.9,30.11,ESE,112,4.6,4.6,80,0.00,SCT,,0.00,WeatherDisplay:10.37,2013-07-31 01:14:00,
2013-07-30 21:19:00,83.7,77.2,30.11,SE,135,2.7,2.7,81,0.00,SCT,,0.00,WeatherDisplay:10.37,2013-07-31 01:19:00,
2013-07-30 21:24:00,83.7,77.2,30.11,East,90,5.9,5.9,81,0.00,SCT,,0.00,WeatherDisplay:10.37,2013-07-31 01:24:00,
2013-07-30 21:29:00,83.5,77.1,30.12,ESE,112,3.5,3.5,81,0.00,SCT,,0.00,WeatherDisplay:10.37,2013-07-31 01:29:00,
2013-07-30 21:34:00,83.5,77.1,30.12,North,360,5.8,5.8,81,0.00,SCT,,0.00,WeatherDisplay:10.37,2013-07-31 01:34:00,
2013-07-30 21:39:00,83.5,77.4,30.12,ENE,68,4.6,4.6,82,0.00,SCT,,0.00,WeatherDisplay:10.37,2013-07-31 01:39:00,
2013-07-30 21:44:00,83.5,77.4,30.12,SW,225,3.8,3.8,82,0.00,SCT,,0.00,WeatherDisplay:10.37,2013-07-31 01:44:00,
2013-07-30 21:49:00,83.5,77.4,30.11,ESE,112,4.6,4.6,82,0.00,SCT,,0.00,WeatherDisplay:10.37,2013-07-31 01:49:00,
2013-07-30 21:54:00,83.5,77.8,30.11,ESE,112,5.9,5.9,83,0.00,SCT,,0.00,WeatherDisplay:10.37,2013-07-31 01:54:00,
2013-07-30 22:00:00,83.5,78.2,30.11,NNE,22,3.5,3.5,84,0.00,SCT,,0.00,WeatherDisplay:10.37,2013-07-31 02:00:00,
2013-07-30 22:05:00,83.3,78.0,30.11,ESE,119,2.0,5.0,84,0.00,SCT,SCT,0.00,WeatherDisplay:10.37,2013-07-31 02:05:00,
2013-07-30 22:10:00,83.1,77.8,30.11,ESE,117,1.0,4.0,84,0.00,SCT,SCT,0.00,WeatherDisplay:10.37,2013-07-31 02:10:00,
2013-07-30 22:15:00,83.1,77.8,30.11,South,180,3.5,0.0,84,0.00,SCT,,0.00,WeatherDisplay:10.37,2013-07-31 02:15:00,
2013-07-30 22:20:00,83.1,77.8,30.11,NE,45,3.5,0.0,84,0.00,SCT,,0.00,WeatherDisplay:10.37,2013-07-31 02:20:00,
2013-07-30 22:25:00,83.1,77.8,30.11,ESE,112,1.2,1.2,84,0.00,SCT,,0.00,WeatherDisplay:10.37,2013-07-31 02:25:00,
2013-07-30 22:30:00,82.9,77.6,30.11,ESE,112,0.0,0.0,84,0.00,SCT,,0.00,WeatherDisplay:10.37,2013-07-31 02:30:00,
2013-07-30 22:35:00,82.8,77.5,30.11,ESE,112,0.0,0.0,84,0.00,SCT,,0.00,WeatherDisplay:10.37,2013-07-31 02:35:00,
2013-07-30 22:40:00,82.8,77.8,30.12,South,180,3.5,3.5,85,0.00,SCT,,0.00,WeatherDisplay:10.37,2013-07-31 02:40:00,
2013-07-30 22:45:00,82.8,77.8,30.12,WSW,248,1.2,0.0,85,0.00,SCT,,0.00,WeatherDisplay:10.37,2013-07-31 02:45:00,
2013-07-30 22:50:00,82.6,78.0,30.11,WNW,292,0.0,0.0,86,0.00,SCT,,0.00,WeatherDisplay:10.37,2013-07-31 02:50:00,
2013-07-30 22:55:00,82.6,78.0,30.11,NE,45,3.5,3.5,86,0.00,SCT,,0.00,WeatherDisplay:10.37,2013-07-31 02:55:00,
2013-07-30 23:00:00,82.6,78.0,30.11,SSW,202,1.2,1.2,86,0.00,SCT,,0.00,WeatherDisplay:10.37,2013-07-31 03:00:00,
2013-07-30 23:05:00,82.6,78.0,30.11,ENE,68,2.3,2.3,86,0.00,FEW,SCT,0.00,WeatherDisplay:10.37,2013-07-31 03:05:00,
2013-07-30 23:10:00,82.6,78.0,30.11,ESE,112,2.3,2.3,86,0.00,FEW,SCT,0.00,WeatherDisplay:10.37,2013-07-31 03:10:00,
2013-07-30 23:16:00,82.6,78.0,30.11,NE,45,1.2,1.2,86,0.00,FEW,SCT,0.00,WeatherDisplay:10.37,2013-07-31 03:16:00,
2013-07-30 23:21:00,82.6,78.0,30.11,ESE,112,1.2,0.0,86,0.00,FEW,SCT,0.00,WeatherDisplay:10.37,2013-07-31 03:21:00,
2013-07-30 23:26:00,82.6,78.0,30.11,SSE,158,0.0,0.0,86,0.00,FEW,SCT,0.00,WeatherDisplay:10.37,2013-07-31 03:26:00,
2013-07-30 23:31:00,82.4,77.8,30.11,ESE,112,2.7,2.7,86,0.00,FEW,SCT,0.00,WeatherDisplay:10.37,2013-07-31 03:31:00,
2013-07-30 23:36:00,82.4,77.8,30.11,NW,315,3.5,3.5,86,0.00,FEW,SCT,0.00,WeatherDisplay:10.37,2013-07-31 03:36:00,
2013-07-30 23:42:00,82.4,77.8,30.11,NNE,22,0.0,0.0,86,0.00,FEW,SCT,0.00,WeatherDisplay:10.37,2013-07-31 03:42:00,
2013-07-30 23:47:00,82.4,77.8,30.11,ESE,112,2.7,2.7,86,0.00,FEW,SCT,0.00,WeatherDisplay:10.37,2013-07-31 03:47:00,
2013-07-30 23:52:00,82.2,77.6,30.11,SSE,158,2.7,2.7,86,0.00,FEW,SCT,0.00,WeatherDisplay:10.37,2013-07-31 03:52:00,
2013-07-30 23:57:00,82.2,77.6,30.11,South,180,0.0,0.0,86,0.00,FEW,SCT,0.00,WeatherDisplay:10.37,2013-07-31 03:57:00,